sensor_id;sensor_type;location;lat;lon;timestamp;P1;durP1;ratioP1;P2;durP2;ratioP2
25045;SDS011;13044;49.304;12.840;2023-02-28T00:01:32;11.25;;;5.40;;
25045;SDS011;13044;49.304;12.840;2023-02-28T00:03:59;11.43;;;5.85;;
25045;SDS011;13044;49.304;12.840;2023-02-28T00:06:26;11.43;;;5.97;;
25045;SDS011;13044;49.304;12.840;2023-02-28T00:08:54;11.07;;;6.38;;
25045;SDS011;13044;49.304;12.840;2023-02-28T00:11:21;11.70;;;5.60;;
25045;SDS011;13044;49.304;12.840;2023-02-28T00:13:48;12.57;;;6.10;;
25045;SDS011;13044;49.304;12.840;2023-02-28T00:16:19;13.45;;;6.38;;
25045;SDS011;13044;49.304;12.840;2023-02-28T00:18:48;12.32;;;5.63;;
25045;SDS011;13044;49.304;12.840;2023-02-28T00:21:17;12.88;;;6.18;;
25045;SDS011;13044;49.304;12.840;2023-02-28T00:23:46;17.00;;;6.82;;
25045;SDS011;13044;49.304;12.840;2023-02-28T00:26:13;11.18;;;6.18;;
25045;SDS011;13044;49.304;12.840;2023-02-28T00:28:40;9.75;;;5.65;;
25045;SDS011;13044;49.304;12.840;2023-02-28T00:31:07;9.95;;;6.35;;
25045;SDS011;13044;49.304;12.840;2023-02-28T00:33:34;11.13;;;6.13;;
25045;SDS011;13044;49.304;12.840;2023-02-28T00:36:09;12.70;;;6.47;;
25045;SDS011;13044;49.304;12.840;2023-02-28T00:38:37;11.25;;;6.63;;
25045;SDS011;13044;49.304;12.840;2023-02-28T00:41:05;10.60;;;6.15;;
25045;SDS011;13044;49.304;12.840;2023-02-28T00:43:34;10.68;;;5.95;;
25045;SDS011;13044;49.304;12.840;2023-02-28T00:46:03;12.25;;;6.30;;
25045;SDS011;13044;49.304;12.840;2023-02-28T00:48:30;11.82;;;6.47;;
25045;SDS011;13044;49.304;12.840;2023-02-28T00:50:58;12.18;;;6.63;;
25045;SDS011;13044;49.304;12.840;2023-02-28T00:53:25;12.18;;;6.40;;
25045;SDS011;13044;49.304;12.840;2023-02-28T00:55:53;13.70;;;6.50;;
25045;SDS011;13044;49.304;12.840;2023-02-28T00:58:19;11.50;;;6.10;;
25045;SDS011;13044;49.304;12.840;2023-02-28T01:00:46;14.10;;;6.50;;
25045;SDS011;13044;49.304;12.840;2023-02-28T01:03:16;14.50;;;6.93;;
25045;SDS011;13044;49.304;12.840;2023-02-28T01:05:45;12.43;;;6.90;;
25045;SDS011;13044;49.304;12.840;2023-02-28T01:08:13;12.02;;;6.88;;
25045;SDS011;13044;49.304;12.840;2023-02-28T01:10:42;11.52;;;6.60;;
25045;SDS011;13044;49.304;12.840;2023-02-28T01:13:08;13.82;;;7.60;;
25045;SDS011;13044;49.304;12.840;2023-02-28T01:15:37;13.38;;;7.43;;
25045;SDS011;13044;49.304;12.840;2023-02-28T01:18:12;15.18;;;7.60;;
25045;SDS011;13044;49.304;12.840;2023-02-28T01:20:39;18.15;;;7.47;;
25045;SDS011;13044;49.304;12.840;2023-02-28T01:23:06;15.32;;;7.80;;
25045;SDS011;13044;49.304;12.840;2023-02-28T01:25:36;15.07;;;7.70;;
25045;SDS011;13044;49.304;12.840;2023-02-28T01:28:04;13.45;;;7.45;;
25045;SDS011;13044;49.304;12.840;2023-02-28T01:30:32;14.60;;;7.70;;
25045;SDS011;13044;49.304;12.840;2023-02-28T01:32:59;13.25;;;7.72;;
25045;SDS011;13044;49.304;12.840;2023-02-28T01:35:26;12.23;;;7.75;;
25045;SDS011;13044;49.304;12.840;2023-02-28T01:37:53;15.80;;;7.80;;
25045;SDS011;13044;49.304;12.840;2023-02-28T01:40:20;15.48;;;8.80;;
25045;SDS011;13044;49.304;12.840;2023-02-28T01:42:48;15.35;;;8.23;;
25045;SDS011;13044;49.304;12.840;2023-02-28T01:48:05;13.43;;;7.43;;
25045;SDS011;13044;49.304;12.840;2023-02-28T01:50:38;14.82;;;9.07;;
25045;SDS011;13044;49.304;12.840;2023-02-28T01:53:10;16.40;;;8.45;;
25045;SDS011;13044;49.304;12.840;2023-02-28T01:55:45;15.15;;;7.93;;
25045;SDS011;13044;49.304;12.840;2023-02-28T01:58:16;18.27;;;9.07;;
25045;SDS011;13044;49.304;12.840;2023-02-28T02:00:43;15.23;;;8.55;;
25045;SDS011;13044;49.304;12.840;2023-02-28T02:03:11;14.80;;;8.60;;
25045;SDS011;13044;49.304;12.840;2023-02-28T02:05:45;13.43;;;8.10;;
25045;SDS011;13044;49.304;12.840;2023-02-28T02:08:17;18.80;;;8.52;;
25045;SDS011;13044;49.304;12.840;2023-02-28T02:10:56;14.02;;;8.55;;
25045;SDS011;13044;49.304;12.840;2023-02-28T02:16:33;18.35;;;8.82;;
25045;SDS011;13044;49.304;12.840;2023-02-28T02:25:42;17.75;;;8.88;;
25045;SDS011;13044;49.304;12.840;2023-02-28T02:28:46;16.83;;;8.63;;
25045;SDS011;13044;49.304;12.840;2023-02-28T02:31:46;19.83;;;9.57;;
25045;SDS011;13044;49.304;12.840;2023-02-28T02:37:36;21.23;;;9.85;;
25045;SDS011;13044;49.304;12.840;2023-02-28T02:42:59;18.98;;;9.98;;
25045;SDS011;13044;49.304;12.840;2023-02-28T02:45:48;19.23;;;9.52;;
25045;SDS011;13044;49.304;12.840;2023-02-28T02:48:21;16.48;;;9.13;;
25045;SDS011;13044;49.304;12.840;2023-02-28T02:50:57;18.10;;;9.60;;
25045;SDS011;13044;49.304;12.840;2023-02-28T02:53:30;21.10;;;9.40;;
25045;SDS011;13044;49.304;12.840;2023-02-28T02:56:02;20.42;;;9.73;;
25045;SDS011;13044;49.304;12.840;2023-02-28T02:58:32;24.17;;;11.60;;
25045;SDS011;13044;49.304;12.840;2023-02-28T03:01:08;17.98;;;9.43;;
25045;SDS011;13044;49.304;12.840;2023-02-28T03:03:40;21.60;;;10.48;;
25045;SDS011;13044;49.304;12.840;2023-02-28T03:06:09;17.27;;;9.48;;
25045;SDS011;13044;49.304;12.840;2023-02-28T03:08:37;21.58;;;9.63;;
25045;SDS011;13044;49.304;12.840;2023-02-28T03:11:10;17.85;;;9.63;;
25045;SDS011;13044;49.304;12.840;2023-02-28T03:13:52;17.77;;;9.70;;
25045;SDS011;13044;49.304;12.840;2023-02-28T03:22:52;14.77;;;9.05;;
25045;SDS011;13044;49.304;12.840;2023-02-28T03:28:37;17.98;;;9.45;;
25045;SDS011;13044;49.304;12.840;2023-02-28T03:31:33;18.17;;;9.10;;
25045;SDS011;13044;49.304;12.840;2023-02-28T03:34:10;17.60;;;9.80;;
25045;SDS011;13044;49.304;12.840;2023-02-28T03:36:54;19.23;;;9.85;;
25045;SDS011;13044;49.304;12.840;2023-02-28T03:39:34;22.27;;;10.88;;
25045;SDS011;13044;49.304;12.840;2023-02-28T03:42:04;17.23;;;9.07;;
25045;SDS011;13044;49.304;12.840;2023-02-28T03:47:09;19.85;;;10.65;;
25045;SDS011;13044;49.304;12.840;2023-02-28T03:50:02;17.67;;;9.60;;
25045;SDS011;13044;49.304;12.840;2023-02-28T03:52:35;24.42;;;10.45;;
25045;SDS011;13044;49.304;12.840;2023-02-28T03:55:12;14.88;;;8.50;;
25045;SDS011;13044;49.304;12.840;2023-02-28T03:57:53;14.65;;;9.02;;
25045;SDS011;13044;49.304;12.840;2023-02-28T04:00:54;15.77;;;9.05;;
25045;SDS011;13044;49.304;12.840;2023-02-28T04:03:34;17.27;;;9.10;;
25045;SDS011;13044;49.304;12.840;2023-02-28T04:06:04;12.90;;;8.18;;
25045;SDS011;13044;49.304;12.840;2023-02-28T04:08:34;17.83;;;9.43;;
25045;SDS011;13044;49.304;12.840;2023-02-28T04:13:54;16.07;;;9.03;;
25045;SDS011;13044;49.304;12.840;2023-02-28T04:16:21;17.10;;;9.23;;
25045;SDS011;13044;49.304;12.840;2023-02-28T04:19:01;13.88;;;8.32;;
25045;SDS011;13044;49.304;12.840;2023-02-28T04:21:33;17.25;;;8.85;;
25045;SDS011;13044;49.304;12.840;2023-02-28T04:24:14;18.30;;;9.52;;
25045;SDS011;13044;49.304;12.840;2023-02-28T04:26:52;17.05;;;8.63;;
25045;SDS011;13044;49.304;12.840;2023-02-28T04:29:28;17.50;;;9.15;;
25045;SDS011;13044;49.304;12.840;2023-02-28T04:32:01;14.57;;;9.00;;
25045;SDS011;13044;49.304;12.840;2023-02-28T04:34:30;14.90;;;8.57;;
25045;SDS011;13044;49.304;12.840;2023-02-28T04:36:58;14.38;;;8.50;;
25045;SDS011;13044;49.304;12.840;2023-02-28T04:39:41;15.18;;;8.65;;
25045;SDS011;13044;49.304;12.840;2023-02-28T04:42:09;14.75;;;8.65;;
25045;SDS011;13044;49.304;12.840;2023-02-28T04:44:37;15.50;;;8.50;;
25045;SDS011;13044;49.304;12.840;2023-02-28T04:47:04;15.90;;;8.68;;
25045;SDS011;13044;49.304;12.840;2023-02-28T04:49:31;11.57;;;7.35;;
25045;SDS011;13044;49.304;12.840;2023-02-28T04:51:58;12.00;;;7.18;;
25045;SDS011;13044;49.304;12.840;2023-02-28T04:54:24;14.35;;;7.45;;
25045;SDS011;13044;49.304;12.840;2023-02-28T04:56:51;11.57;;;7.03;;
25045;SDS011;13044;49.304;12.840;2023-02-28T04:59:19;12.13;;;7.40;;
25045;SDS011;13044;49.304;12.840;2023-02-28T05:01:47;15.18;;;7.90;;
25045;SDS011;13044;49.304;12.840;2023-02-28T05:04:15;11.48;;;7.25;;
25045;SDS011;13044;49.304;12.840;2023-02-28T05:06:43;13.80;;;8.57;;
25045;SDS011;13044;49.304;12.840;2023-02-28T05:09:10;15.85;;;8.35;;
25045;SDS011;13044;49.304;12.840;2023-02-28T05:11:38;14.70;;;8.40;;
25045;SDS011;13044;49.304;12.840;2023-02-28T05:14:09;14.70;;;8.68;;
25045;SDS011;13044;49.304;12.840;2023-02-28T05:19:05;15.10;;;8.57;;
25045;SDS011;13044;49.304;12.840;2023-02-28T05:21:33;17.33;;;8.85;;
25045;SDS011;13044;49.304;12.840;2023-02-28T05:24:07;15.15;;;8.48;;
25045;SDS011;13044;49.304;12.840;2023-02-28T05:26:41;15.05;;;8.95;;
25045;SDS011;13044;49.304;12.840;2023-02-28T05:29:09;15.20;;;8.60;;
25045;SDS011;13044;49.304;12.840;2023-02-28T05:31:37;19.00;;;9.48;;
25045;SDS011;13044;49.304;12.840;2023-02-28T05:34:04;13.02;;;8.70;;
25045;SDS011;13044;49.304;12.840;2023-02-28T05:36:31;17.15;;;8.70;;
25045;SDS011;13044;49.304;12.840;2023-02-28T05:38:59;15.68;;;9.82;;
25045;SDS011;13044;49.304;12.840;2023-02-28T05:41:26;18.45;;;9.82;;
25045;SDS011;13044;49.304;12.840;2023-02-28T05:43:54;17.75;;;9.63;;
25045;SDS011;13044;49.304;12.840;2023-02-28T05:46:20;16.65;;;9.52;;
25045;SDS011;13044;49.304;12.840;2023-02-28T05:48:47;17.98;;;10.32;;
25045;SDS011;13044;49.304;12.840;2023-02-28T05:51:15;16.70;;;9.63;;
25045;SDS011;13044;49.304;12.840;2023-02-28T05:53:43;20.83;;;10.48;;
25045;SDS011;13044;49.304;12.840;2023-02-28T05:56:10;20.50;;;10.80;;
25045;SDS011;13044;49.304;12.840;2023-02-28T05:58:37;18.13;;;10.20;;
25045;SDS011;13044;49.304;12.840;2023-02-28T06:01:20;19.17;;;10.70;;
25045;SDS011;13044;49.304;12.840;2023-02-28T06:03:49;18.55;;;10.40;;
25045;SDS011;13044;49.304;12.840;2023-02-28T06:06:17;20.13;;;9.88;;
25045;SDS011;13044;49.304;12.840;2023-02-28T06:08:44;18.85;;;10.13;;
25045;SDS011;13044;49.304;12.840;2023-02-28T06:11:13;16.10;;;9.70;;
25045;SDS011;13044;49.304;12.840;2023-02-28T06:13:40;17.13;;;9.50;;
25045;SDS011;13044;49.304;12.840;2023-02-28T06:16:09;20.23;;;10.57;;
25045;SDS011;13044;49.304;12.840;2023-02-28T06:18:37;17.85;;;10.15;;
25045;SDS011;13044;49.304;12.840;2023-02-28T06:21:04;20.80;;;10.00;;
25045;SDS011;13044;49.304;12.840;2023-02-28T06:23:31;17.00;;;9.95;;
25045;SDS011;13044;49.304;12.840;2023-02-28T06:25:58;15.63;;;10.27;;
25045;SDS011;13044;49.304;12.840;2023-02-28T06:28:26;18.27;;;10.02;;
25045;SDS011;13044;49.304;12.840;2023-02-28T06:30:52;18.67;;;9.93;;
25045;SDS011;13044;49.304;12.840;2023-02-28T06:33:19;17.58;;;9.70;;
25045;SDS011;13044;49.304;12.840;2023-02-28T06:35:47;17.48;;;9.40;;
25045;SDS011;13044;49.304;12.840;2023-02-28T06:38:17;14.50;;;8.80;;
25045;SDS011;13044;49.304;12.840;2023-02-28T06:40:48;15.18;;;9.43;;
25045;SDS011;13044;49.304;12.840;2023-02-28T06:43:22;19.65;;;9.25;;
25045;SDS011;13044;49.304;12.840;2023-02-28T06:45:54;16.30;;;8.75;;
25045;SDS011;13044;49.304;12.840;2023-02-28T06:48:23;19.30;;;9.15;;
25045;SDS011;13044;49.304;12.840;2023-02-28T06:50:50;14.02;;;9.05;;
25045;SDS011;13044;49.304;12.840;2023-02-28T06:53:18;26.48;;;9.57;;
25045;SDS011;13044;49.304;12.840;2023-02-28T06:55:44;19.55;;;9.88;;
25045;SDS011;13044;49.304;12.840;2023-02-28T06:58:11;15.73;;;8.90;;
25045;SDS011;13044;49.304;12.840;2023-02-28T07:00:42;18.30;;;9.63;;
25045;SDS011;13044;49.304;12.840;2023-02-28T07:03:11;17.02;;;9.50;;
25045;SDS011;13044;49.304;12.840;2023-02-28T07:05:39;17.90;;;10.07;;
25045;SDS011;13044;49.304;12.840;2023-02-28T07:08:06;20.50;;;10.40;;
25045;SDS011;13044;49.304;12.840;2023-02-28T07:10:33;14.60;;;9.15;;
25045;SDS011;13044;49.304;12.840;2023-02-28T07:13:00;16.23;;;9.93;;
25045;SDS011;13044;49.304;12.840;2023-02-28T07:15:27;19.65;;;10.23;;
25045;SDS011;13044;49.304;12.840;2023-02-28T07:17:54;19.27;;;9.65;;
25045;SDS011;13044;49.304;12.840;2023-02-28T07:20:22;15.88;;;8.75;;
25045;SDS011;13044;49.304;12.840;2023-02-28T07:22:51;16.85;;;9.73;;
25045;SDS011;13044;49.304;12.840;2023-02-28T07:25:23;19.65;;;9.52;;
25045;SDS011;13044;49.304;12.840;2023-02-28T07:27:54;16.58;;;9.25;;
25045;SDS011;13044;49.304;12.840;2023-02-28T07:30:22;19.65;;;9.55;;
25045;SDS011;13044;49.304;12.840;2023-02-28T07:32:50;23.00;;;9.32;;
25045;SDS011;13044;49.304;12.840;2023-02-28T07:35:18;17.33;;;9.52;;
25045;SDS011;13044;49.304;12.840;2023-02-28T07:37:45;17.92;;;10.02;;
25045;SDS011;13044;49.304;12.840;2023-02-28T07:40:13;18.77;;;9.98;;
25045;SDS011;13044;49.304;12.840;2023-02-28T07:42:42;16.42;;;10.38;;
25045;SDS011;13044;49.304;12.840;2023-02-28T07:45:09;17.95;;;10.02;;
25045;SDS011;13044;49.304;12.840;2023-02-28T07:47:38;18.50;;;10.52;;
25045;SDS011;13044;49.304;12.840;2023-02-28T07:50:06;21.15;;;10.43;;
25045;SDS011;13044;49.304;12.840;2023-02-28T07:52:38;19.20;;;10.80;;
25045;SDS011;13044;49.304;12.840;2023-02-28T07:55:06;18.67;;;10.63;;
25045;SDS011;13044;49.304;12.840;2023-02-28T07:57:36;16.42;;;9.88;;
25045;SDS011;13044;49.304;12.840;2023-02-28T08:00:06;34.30;;;14.55;;
25045;SDS011;13044;49.304;12.840;2023-02-28T08:02:36;18.58;;;9.88;;
25045;SDS011;13044;49.304;12.840;2023-02-28T08:05:05;26.50;;;10.85;;
25045;SDS011;13044;49.304;12.840;2023-02-28T08:07:34;20.48;;;10.95;;
25045;SDS011;13044;49.304;12.840;2023-02-28T08:10:01;20.00;;;10.90;;
25045;SDS011;13044;49.304;12.840;2023-02-28T08:12:32;17.00;;;10.25;;
25045;SDS011;13044;49.304;12.840;2023-02-28T08:15:01;20.75;;;10.30;;
25045;SDS011;13044;49.304;12.840;2023-02-28T08:17:29;19.63;;;10.05;;
25045;SDS011;13044;49.304;12.840;2023-02-28T08:19:58;19.35;;;10.02;;
25045;SDS011;13044;49.304;12.840;2023-02-28T08:22:26;14.65;;;10.38;;
25045;SDS011;13044;49.304;12.840;2023-02-28T08:24:53;18.88;;;10.88;;
25045;SDS011;13044;49.304;12.840;2023-02-28T08:27:20;21.75;;;10.75;;
25045;SDS011;13044;49.304;12.840;2023-02-28T08:29:47;17.08;;;10.45;;
25045;SDS011;13044;49.304;12.840;2023-02-28T08:32:15;18.92;;;11.40;;
25045;SDS011;13044;49.304;12.840;2023-02-28T08:34:55;17.55;;;10.68;;
25045;SDS011;13044;49.304;12.840;2023-02-28T08:37:22;19.90;;;9.80;;
25045;SDS011;13044;49.304;12.840;2023-02-28T08:39:49;21.05;;;10.18;;
25045;SDS011;13044;49.304;12.840;2023-02-28T08:42:19;17.35;;;10.43;;
25045;SDS011;13044;49.304;12.840;2023-02-28T08:44:46;20.88;;;11.07;;
25045;SDS011;13044;49.304;12.840;2023-02-28T08:47:13;18.70;;;10.30;;
25045;SDS011;13044;49.304;12.840;2023-02-28T08:49:40;18.13;;;11.30;;
25045;SDS011;13044;49.304;12.840;2023-02-28T08:52:09;19.95;;;10.40;;
25045;SDS011;13044;49.304;12.840;2023-02-28T08:54:37;20.45;;;11.00;;
25045;SDS011;13044;49.304;12.840;2023-02-28T08:57:04;17.95;;;10.18;;
25045;SDS011;13044;49.304;12.840;2023-02-28T08:59:31;25.00;;;10.68;;
25045;SDS011;13044;49.304;12.840;2023-02-28T09:01:59;19.40;;;11.38;;
25045;SDS011;13044;49.304;12.840;2023-02-28T09:04:26;20.10;;;11.10;;
25045;SDS011;13044;49.304;12.840;2023-02-28T09:06:56;21.73;;;11.82;;
25045;SDS011;13044;49.304;12.840;2023-02-28T09:09:24;18.67;;;10.38;;
25045;SDS011;13044;49.304;12.840;2023-02-28T09:11:54;18.98;;;10.88;;
25045;SDS011;13044;49.304;12.840;2023-02-28T09:14:23;18.80;;;10.70;;
25045;SDS011;13044;49.304;12.840;2023-02-28T09:16:50;19.48;;;11.50;;
25045;SDS011;13044;49.304;12.840;2023-02-28T09:19:18;20.13;;;12.07;;
25045;SDS011;13044;49.304;12.840;2023-02-28T09:21:45;17.98;;;10.88;;
25045;SDS011;13044;49.304;12.840;2023-02-28T09:24:12;19.88;;;11.30;;
25045;SDS011;13044;49.304;12.840;2023-02-28T09:26:41;20.00;;;11.02;;
25045;SDS011;13044;49.304;12.840;2023-02-28T09:29:29;20.30;;;11.57;;
25045;SDS011;13044;49.304;12.840;2023-02-28T09:32:01;21.50;;;11.68;;
25045;SDS011;13044;49.304;12.840;2023-02-28T09:34:29;22.83;;;11.18;;
25045;SDS011;13044;49.304;12.840;2023-02-28T09:36:58;19.60;;;10.88;;
25045;SDS011;13044;49.304;12.840;2023-02-28T09:39:25;25.27;;;12.10;;
25045;SDS011;13044;49.304;12.840;2023-02-28T09:41:53;21.25;;;11.65;;
25045;SDS011;13044;49.304;12.840;2023-02-28T09:44:37;22.13;;;11.43;;
25045;SDS011;13044;49.304;12.840;2023-02-28T09:49:46;20.83;;;12.02;;
25045;SDS011;13044;49.304;12.840;2023-02-28T09:52:18;22.70;;;11.20;;
25045;SDS011;13044;49.304;12.840;2023-02-28T09:54:50;22.75;;;12.25;;
25045;SDS011;13044;49.304;12.840;2023-02-28T10:00:03;22.05;;;12.02;;
25045;SDS011;13044;49.304;12.840;2023-02-28T10:05:53;20.05;;;11.77;;
25045;SDS011;13044;49.304;12.840;2023-02-28T10:08:35;21.27;;;11.70;;
25045;SDS011;13044;49.304;12.840;2023-02-28T10:11:17;21.67;;;11.57;;
25045;SDS011;13044;49.304;12.840;2023-02-28T10:13:52;22.00;;;12.07;;
25045;SDS011;13044;49.304;12.840;2023-02-28T10:16:35;20.38;;;11.82;;
25045;SDS011;13044;49.304;12.840;2023-02-28T10:19:23;22.77;;;12.65;;
25045;SDS011;13044;49.304;12.840;2023-02-28T10:22:13;23.25;;;12.38;;
25045;SDS011;13044;49.304;12.840;2023-02-28T10:25:17;18.05;;;11.80;;
25045;SDS011;13044;49.304;12.840;2023-02-28T10:27:48;20.73;;;12.80;;
25045;SDS011;13044;49.304;12.840;2023-02-28T10:30:20;21.23;;;12.18;;
25045;SDS011;13044;49.304;12.840;2023-02-28T10:32:50;20.48;;;11.60;;
25045;SDS011;13044;49.304;12.840;2023-02-28T10:35:24;21.10;;;11.68;;
25045;SDS011;13044;49.304;12.840;2023-02-28T10:37:59;17.85;;;11.43;;
25045;SDS011;13044;49.304;12.840;2023-02-28T10:40:34;16.10;;;10.07;;
25045;SDS011;13044;49.304;12.840;2023-02-28T10:43:04;20.92;;;11.93;;
25045;SDS011;13044;49.304;12.840;2023-02-28T10:46:09;17.88;;;10.38;;
25045;SDS011;13044;49.304;12.840;2023-02-28T10:48:40;22.73;;;10.48;;
25045;SDS011;13044;49.304;12.840;2023-02-28T10:51:18;19.13;;;10.75;;
25045;SDS011;13044;49.304;12.840;2023-02-28T10:53:52;25.75;;;14.43;;
25045;SDS011;13044;49.304;12.840;2023-02-28T10:56:27;20.45;;;11.88;;
25045;SDS011;13044;49.304;12.840;2023-02-28T10:59:03;19.30;;;11.32;;
25045;SDS011;13044;49.304;12.840;2023-02-28T11:01:54;19.42;;;12.10;;
25045;SDS011;13044;49.304;12.840;2023-02-28T11:06:59;21.58;;;12.57;;
25045;SDS011;13044;49.304;12.840;2023-02-28T11:09:51;16.67;;;11.07;;
25045;SDS011;13044;49.304;12.840;2023-02-28T11:17:54;19.05;;;10.68;;
25045;SDS011;13044;49.304;12.840;2023-02-28T11:20:32;19.63;;;12.05;;
25045;SDS011;13044;49.304;12.840;2023-02-28T11:23:01;22.35;;;11.10;;
25045;SDS011;13044;49.304;12.840;2023-02-28T11:25:35;20.75;;;11.25;;
25045;SDS011;13044;49.304;12.840;2023-02-28T11:28:05;21.70;;;11.18;;
25045;SDS011;13044;49.304;12.840;2023-02-28T11:33:31;20.27;;;11.48;;
25045;SDS011;13044;49.304;12.840;2023-02-28T11:36:13;18.02;;;10.63;;
25045;SDS011;13044;49.304;12.840;2023-02-28T11:38:54;19.75;;;11.13;;
25045;SDS011;13044;49.304;12.840;2023-02-28T11:41:50;17.00;;;10.98;;
25045;SDS011;13044;49.304;12.840;2023-02-28T11:44:43;18.88;;;11.43;;
25045;SDS011;13044;49.304;12.840;2023-02-28T11:59:15;16.88;;;8.90;;
25045;SDS011;13044;49.304;12.840;2023-02-28T12:07:43;19.38;;;10.32;;
25045;SDS011;13044;49.304;12.840;2023-02-28T12:10:25;18.60;;;10.15;;
25045;SDS011;13044;49.304;12.840;2023-02-28T12:21:45;15.27;;;8.93;;
25045;SDS011;13044;49.304;12.840;2023-02-28T12:27:44;17.55;;;8.82;;
25045;SDS011;13044;49.304;12.840;2023-02-28T12:32:50;16.65;;;9.38;;
25045;SDS011;13044;49.304;12.840;2023-02-28T12:35:30;18.42;;;9.60;;
25045;SDS011;13044;49.304;12.840;2023-02-28T12:38:31;18.90;;;9.52;;
25045;SDS011;13044;49.304;12.840;2023-02-28T12:44:08;17.73;;;10.47;;
25045;SDS011;13044;49.304;12.840;2023-02-28T12:46:47;16.08;;;9.57;;
25045;SDS011;13044;49.304;12.840;2023-02-28T12:49:23;17.20;;;10.27;;
25045;SDS011;13044;49.304;12.840;2023-02-28T12:52:11;11.87;;;6.63;;
25045;SDS011;13044;49.304;12.840;2023-02-28T12:54:45;16.35;;;9.27;;
25045;SDS011;13044;49.304;12.840;2023-02-28T13:00:36;14.52;;;9.55;;
25045;SDS011;13044;49.304;12.840;2023-02-28T13:03:19;15.00;;;8.88;;
25045;SDS011;13044;49.304;12.840;2023-02-28T13:06:17;16.92;;;10.85;;
25045;SDS011;13044;49.304;12.840;2023-02-28T13:09:14;19.50;;;10.85;;
25045;SDS011;13044;49.304;12.840;2023-02-28T13:11:44;15.57;;;9.57;;
25045;SDS011;13044;49.304;12.840;2023-02-28T13:14:20;20.27;;;10.80;;
25045;SDS011;13044;49.304;12.840;2023-02-28T13:17:01;21.02;;;11.65;;
25045;SDS011;13044;49.304;12.840;2023-02-28T13:19:41;17.48;;;11.13;;
25045;SDS011;13044;49.304;12.840;2023-02-28T13:22:19;19.27;;;11.15;;
25045;SDS011;13044;49.304;12.840;2023-02-28T13:28:01;18.58;;;10.38;;
25045;SDS011;13044;49.304;12.840;2023-02-28T13:33:26;16.52;;;10.40;;
25045;SDS011;13044;49.304;12.840;2023-02-28T13:36:27;18.00;;;11.00;;
25045;SDS011;13044;49.304;12.840;2023-02-28T13:38:58;21.40;;;10.43;;
25045;SDS011;13044;49.304;12.840;2023-02-28T13:46:35;16.85;;;10.50;;
25045;SDS011;13044;49.304;12.840;2023-02-28T13:49:28;45.45;;;18.38;;
25045;SDS011;13044;49.304;12.840;2023-02-28T14:06:30;17.67;;;11.00;;
25045;SDS011;13044;49.304;12.840;2023-02-28T14:09:18;17.42;;;10.80;;
25045;SDS011;13044;49.304;12.840;2023-02-28T14:17:59;18.10;;;11.05;;
25045;SDS011;13044;49.304;12.840;2023-02-28T14:20:32;22.25;;;11.10;;
25045;SDS011;13044;49.304;12.840;2023-02-28T14:23:12;17.08;;;11.52;;
25045;SDS011;13044;49.304;12.840;2023-02-28T14:32:02;20.08;;;12.23;;
25045;SDS011;13044;49.304;12.840;2023-02-28T14:37:29;22.52;;;12.73;;
25045;SDS011;13044;49.304;12.840;2023-02-28T14:39:59;22.90;;;12.68;;
25045;SDS011;13044;49.304;12.840;2023-02-28T14:42:28;19.15;;;12.00;;
25045;SDS011;13044;49.304;12.840;2023-02-28T14:45:01;20.52;;;12.63;;
25045;SDS011;13044;49.304;12.840;2023-02-28T14:47:30;19.15;;;11.98;;
25045;SDS011;13044;49.304;12.840;2023-02-28T14:50:00;21.17;;;12.30;;
25045;SDS011;13044;49.304;12.840;2023-02-28T14:52:30;21.00;;;12.27;;
25045;SDS011;13044;49.304;12.840;2023-02-28T14:54:59;21.90;;;12.82;;
25045;SDS011;13044;49.304;12.840;2023-02-28T14:57:35;21.65;;;13.05;;
25045;SDS011;13044;49.304;12.840;2023-02-28T15:00:33;24.83;;;14.45;;
25045;SDS011;13044;49.304;12.840;2023-02-28T15:05:59;20.05;;;13.07;;
25045;SDS011;13044;49.304;12.840;2023-02-28T15:08:30;22.85;;;14.88;;
25045;SDS011;13044;49.304;12.840;2023-02-28T15:11:12;23.63;;;14.98;;
25045;SDS011;13044;49.304;12.840;2023-02-28T15:13:46;27.88;;;15.88;;
25045;SDS011;13044;49.304;12.840;2023-02-28T15:16:25;25.77;;;15.68;;
25045;SDS011;13044;49.304;12.840;2023-02-28T15:19:00;22.55;;;14.10;;
25045;SDS011;13044;49.304;12.840;2023-02-28T15:21:43;23.90;;;14.50;;
25045;SDS011;13044;49.304;12.840;2023-02-28T15:26:54;23.90;;;14.70;;
25045;SDS011;13044;49.304;12.840;2023-02-28T15:29:27;24.08;;;15.05;;
25045;SDS011;13044;49.304;12.840;2023-02-28T15:32:04;30.20;;;15.32;;
25045;SDS011;13044;49.304;12.840;2023-02-28T15:39:52;26.88;;;16.02;;
25045;SDS011;13044;49.304;12.840;2023-02-28T15:42:23;24.77;;;14.68;;
25045;SDS011;13044;49.304;12.840;2023-02-28T15:44:55;30.42;;;16.85;;
25045;SDS011;13044;49.304;12.840;2023-02-28T15:47:24;24.92;;;14.45;;
25045;SDS011;13044;49.304;12.840;2023-02-28T15:49:57;24.45;;;14.75;;
25045;SDS011;13044;49.304;12.840;2023-02-28T15:52:34;25.15;;;14.50;;
25045;SDS011;13044;49.304;12.840;2023-02-28T15:57:51;29.98;;;17.23;;
25045;SDS011;13044;49.304;12.840;2023-02-28T16:00:25;28.50;;;17.17;;
25045;SDS011;13044;49.304;12.840;2023-02-28T16:02:55;30.58;;;16.88;;
25045;SDS011;13044;49.304;12.840;2023-02-28T16:05:27;33.20;;;18.70;;
25045;SDS011;13044;49.304;12.840;2023-02-28T16:08:00;41.28;;;23.70;;
25045;SDS011;13044;49.304;12.840;2023-02-28T16:10:38;35.50;;;19.80;;
25045;SDS011;13044;49.304;12.840;2023-02-28T16:13:08;77.53;;;39.25;;
25045;SDS011;13044;49.304;12.840;2023-02-28T16:15:41;113.25;;;56.85;;
25045;SDS011;13044;49.304;12.840;2023-02-28T16:18:11;141.55;;;79.35;;
25045;SDS011;13044;49.304;12.840;2023-02-28T16:20:40;40.10;;;23.05;;
25045;SDS011;13044;49.304;12.840;2023-02-28T16:23:10;47.47;;;29.40;;
25045;SDS011;13044;49.304;12.840;2023-02-28T16:25:40;39.22;;;23.90;;
25045;SDS011;13044;49.304;12.840;2023-02-28T16:28:15;34.63;;;20.20;;
25045;SDS011;13044;49.304;12.840;2023-02-28T16:31:02;46.53;;;28.17;;
25045;SDS011;13044;49.304;12.840;2023-02-28T16:33:33;33.45;;;20.10;;
25045;SDS011;13044;49.304;12.840;2023-02-28T16:36:00;40.60;;;26.20;;
25045;SDS011;13044;49.304;12.840;2023-02-28T16:38:28;40.50;;;20.92;;
25045;SDS011;13044;49.304;12.840;2023-02-28T16:40:55;38.38;;;23.15;;
25045;SDS011;13044;49.304;12.840;2023-02-28T16:43:26;32.03;;;19.70;;
25045;SDS011;13044;49.304;12.840;2023-02-28T16:45:57;38.42;;;19.38;;
25045;SDS011;13044;49.304;12.840;2023-02-28T16:48:26;34.47;;;19.05;;
25045;SDS011;13044;49.304;12.840;2023-02-28T16:50:53;36.80;;;19.65;;
25045;SDS011;13044;49.304;12.840;2023-02-28T16:53:21;36.33;;;18.73;;
25045;SDS011;13044;49.304;12.840;2023-02-28T16:55:48;38.65;;;17.90;;
25045;SDS011;13044;49.304;12.840;2023-02-28T16:58:16;37.40;;;20.38;;
25045;SDS011;13044;49.304;12.840;2023-02-28T17:00:47;40.08;;;21.27;;
25045;SDS011;13044;49.304;12.840;2023-02-28T17:03:25;33.10;;;18.58;;
25045;SDS011;13044;49.304;12.840;2023-02-28T17:08:26;42.35;;;21.42;;
25045;SDS011;13044;49.304;12.840;2023-02-28T17:10:55;38.00;;;22.83;;
25045;SDS011;13044;49.304;12.840;2023-02-28T17:13:22;48.72;;;28.25;;
25045;SDS011;13044;49.304;12.840;2023-02-28T17:15:50;47.85;;;28.08;;